Time;durP1;ratioP1;P1;durP2;ratioP2;P2;SDS_P1;SDS_P2;PMS_P1;PMS_P2;Temp;Humidity;BMP_temperature;BMP_pressure;BME280_temperature;BME280_humidity;BME280_pressure;Samples;Min_cycle;Max_cycle;Signal;HPM_P1;HPM_P2
2021/06/21 00:01:01;;;;;;;;;;;27.40;58.40;;;;;;5008996;28;19925;-61
2021/06/21 00:03:26;;;;;;;;;;;27.40;58.60;;;;;;5048176;22;19929;-60
2021/06/21 00:05:52;;;;;;;;;;;27.40;58.70;;;;;;5055994;28;19931;-61
2021/06/21 00:08:17;;;;;;;;;;;27.40;58.80;;;;;;5052049;28;20281;-59
2021/06/21 00:10:43;;;;;;;;;;;27.40;58.70;;;;;;5056320;28;20066;-60
2021/06/21 00:13:09;;;;;;;;;;;27.40;58.60;;;;;;5057303;28;20007;-61
2021/06/21 00:15:34;;;;;;;;;;;27.40;58.60;;;;;;5059397;28;19916;-60
2021/06/21 00:17:59;;;;;;;;;;;27.50;58.70;;;;;;5059936;28;19925;-61
2021/06/21 00:20:25;;;;;;;;;;;27.40;58.60;;;;;;5054295;28;19917;-60
2021/06/21 00:22:51;;;;;;;;;;;27.50;58.50;;;;;;5059353;28;20007;-60
2021/06/21 00:25:17;;;;;;;;;;;27.50;58.40;;;;;;5048682;28;19924;-60
2021/06/21 00:27:42;;;;;;;;;;;27.50;58.60;;;;;;5054346;28;19924;-60
2021/06/21 00:30:10;;;;;;;;;;;27.50;58.60;;;;;;5058611;28;20494;-61
2021/06/21 00:32:35;;;;;;;;;;;27.50;58.30;;;;;;5059408;28;19921;-60
2021/06/21 00:35:01;;;;;;;;;;;27.50;58.30;;;;;;5047428;28;19927;-60
2021/06/21 00:37:26;;;;;;;;;;;27.50;58.60;;;;;;5060467;28;19927;-61
2021/06/21 00:39:52;;;;;;;;;;;27.50;58.70;;;;;;5061957;28;20333;-61
2021/06/21 00:42:17;;;;;;;;;;;27.50;58.50;;;;;;5055594;28;19920;-60
2021/06/21 00:44:43;;;;;;;;;;;27.50;58.70;;;;;;5056148;28;19935;-61
2021/06/21 00:47:13;;;;;;;;;;;27.50;58.80;;;;;;5063337;28;20486;-60
2021/06/21 00:49:38;;;;;;;;;;;27.50;58.80;;;;;;5054947;28;19917;-62
2021/06/21 00:52:04;;;;;;;;;;;27.50;58.90;;;;;;5054096;28;19923;-60
2021/06/21 00:54:29;;;;;;;;;;;27.50;59.50;;;;;;5055921;28;20023;-61
2021/06/21 00:56:54;;;;;;;;;;;27.50;58.80;;;;;;5050989;28;19924;-61
2021/06/21 00:59:20;;;;;;;;;;;27.50;58.80;;;;;;5053385;28;20570;-60
2021/06/21 01:01:45;;;;;;;;;;;27.50;58.70;;;;;;5053896;28;19923;-60
2021/06/21 01:04:11;;;;;;;;;;;27.50;58.70;;;;;;5060835;28;19928;-62
2021/06/21 01:06:36;;;;;;;;;;;27.50;58.70;;;;;;5065499;28;19920;-61
2021/06/21 01:09:02;;;;;;;;;;;27.50;58.60;;;;;;5062550;28;19991;-61
2021/06/21 01:12:03;;;;;;;;;;;27.50;58.60;;;;;;5055109;28;19924;-61
2021/06/21 01:14:32;;;;;;;;;;;27.50;58.60;;;;;;4992490;28;19918;-60
2021/06/21 01:17:18;;;;;;;;;;;27.50;58.50;;;;;;5045615;28;19928;-60
2021/06/21 01:20:19;;;;;;;;;;;27.50;58.50;;;;;;5066656;28;19924;-61
2021/06/21 01:23:03;;;;;;;;;;;27.50;58.40;;;;;;5011447;28;20120;-60
2021/06/21 01:25:34;;;;;;;;;;;27.50;58.30;;;;;;5053346;28;19995;-60
2021/06/21 01:28:02;;;;;;;;;;;27.50;58.30;;;;;;5066868;28;19924;-61
2021/06/21 01:31:06;;;;;;;;;;;27.50;58.30;;;;;;5060424;28;20388;-60
2021/06/21 01:33:31;;;;;;;;;;;27.50;58.30;;;;;;4986206;28;19962;-61
2021/06/21 01:35:57;;;;;;;;;;;27.50;58.30;;;;;;4990009;28;20031;-60
2021/06/21 01:38:24;;;;;;;;;;;27.50;58.30;;;;;;5012781;28;20524;-62
2021/06/21 01:40:52;;;;;;;;;;;27.50;58.90;;;;;;5061710;28;19986;-61
2021/06/21 01:43:18;;;;;;;;;;;27.50;58.20;;;;;;5051814;28;19921;-60
2021/06/21 01:45:43;;;;;;;;;;;27.50;58.20;;;;;;5063316;28;20172;-60
2021/06/21 01:48:08;;;;;;;;;;;27.50;58.20;;;;;;5064674;28;19965;-61
2021/06/21 01:50:34;;;;;;;;;;;27.50;58.20;;;;;;5058514;28;20132;-61
2021/06/21 01:53:15;;;;;;;;;;;27.50;58.30;;;;;;5061425;28;19932;-61
2021/06/21 01:55:43;;;;;;;;;;;27.50;58.30;;;;;;5036418;28;19928;-60
2021/06/21 01:58:09;;;;;;;;;;;27.50;58.20;;;;;;5065979;28;19920;-60
2021/06/21 02:00:34;;;;;;;;;;;27.50;58.20;;;;;;5041479;28;19962;-60
2021/06/21 02:02:59;;;;;;;;;;;27.50;58.30;;;;;;5055386;28;20633;-60
2021/06/21 02:05:25;;;;;;;;;;;27.50;58.30;;;;;;5061695;28;19971;-61
2021/06/21 02:07:50;;;;;;;;;;;27.40;58.20;;;;;;5059864;28;19977;-61
2021/06/21 02:10:16;;;;;;;;;;;27.50;58.10;;;;;;5054468;28;19920;-61
2021/06/21 02:12:42;;;;;;;;;;;27.50;58.20;;;;;;5056955;28;19980;-61
2021/06/21 02:15:08;;;;;;;;;;;27.50;58.10;;;;;;5055208;28;19916;-59
2021/06/21 02:17:33;;;;;;;;;;;27.50;58.20;;;;;;5062302;28;20444;-61
2021/06/21 02:19:59;;;;;;;;;;;27.50;58.10;;;;;;5053607;28;20011;-62
2021/06/21 02:22:25;;;;;;;;;;;27.50;58.20;;;;;;5066281;28;19916;-61
2021/06/21 02:24:51;;;;;;;;;;;27.40;58.10;;;;;;5064240;28;20393;-61
2021/06/21 02:27:16;;;;;;;;;;;27.40;58.10;;;;;;5053969;28;19974;-61
2021/06/21 02:29:42;;;;;;;;;;;27.40;58.20;;;;;;5060594;28;20578;-60
2021/06/21 02:32:07;;;;;;;;;;;27.50;58.20;;;;;;5061696;28;20016;-61
2021/06/21 02:34:32;;;;;;;;;;;27.40;58.20;;;;;;5057876;28;19923;-60
2021/06/21 02:36:58;;;;;;;;;;;27.40;58.20;;;;;;5050766;28;20091;-60
2021/06/21 02:39:23;;;;;;;;;;;27.40;58.20;;;;;;5062836;28;20378;-60
2021/06/21 02:41:49;;;;;;;;;;;27.50;58.20;;;;;;5051756;28;19917;-61
2021/06/21 02:44:14;;;;;;;;;;;27.50;58.20;;;;;;5052541;28;19927;-61
2021/06/21 02:46:40;;;;;;;;;;;27.40;58.10;;;;;;5052470;28;20310;-61
2021/06/21 02:49:05;;;;;;;;;;;27.50;58.20;;;;;;5051479;28;19927;-61
2021/06/21 02:51:35;;;;;;;;;;;27.50;58.10;;;;;;5051695;28;20106;-61
2021/06/21 02:54:03;;;;;;;;;;;27.40;58.10;;;;;;5035586;28;20268;-61
2021/06/21 02:56:38;;;;;;;;;;;27.40;58.10;;;;;;5062617;28;20380;-61
2021/06/21 02:59:10;;;;;;;;;;;27.40;58.10;;;;;;5045692;28;19951;-61
2021/06/21 03:01:35;;;;;;;;;;;27.40;58.10;;;;;;5042607;28;20013;-60
2021/06/21 03:04:01;;;;;;;;;;;27.40;58.10;;;;;;5063589;28;20051;-60
2021/06/21 03:06:26;;;;;;;;;;;27.40;58.10;;;;;;5049863;28;19916;-63
2021/06/21 03:08:52;;;;;;;;;;;27.40;58.10;;;;;;5044580;28;19920;-60
2021/06/21 03:11:17;;;;;;;;;;;27.40;58.10;;;;;;5050052;28;20234;-61
2021/06/21 03:13:43;;;;;;;;;;;27.40;58.10;;;;;;5049356;28;20122;-60
2021/06/21 03:16:09;;;;;;;;;;;27.30;58.10;;;;;;5057170;28;19928;-61
2021/06/21 03:18:34;;;;;;;;;;;27.40;58.20;;;;;;5049411;28;19916;-60
2021/06/21 03:21:00;;;;;;;;;;;27.40;58.10;;;;;;5059249;28;19924;-61
2021/06/21 03:23:25;;;;;;;;;;;27.40;58.10;;;;;;5062249;28;20025;-61
2021/06/21 03:25:51;;;;;;;;;;;27.40;58.10;;;;;;5050824;28;19962;-61
2021/06/21 03:28:17;;;;;;;;;;;27.40;58.00;;;;;;5040608;28;19924;-59
2021/06/21 03:30:43;;;;;;;;;;;27.30;57.90;;;;;;5052700;28;19921;-59
2021/06/21 03:33:08;;;;;;;;;;;27.40;58.00;;;;;;5046522;28;19964;-61
2021/06/21 03:35:34;;;;;;;;;;;27.40;58.00;;;;;;5052149;28;19921;-63
2021/06/21 03:38:10;;;;;;;;;;;27.40;58.00;;;;;;5062438;28;20380;-60
2021/06/21 03:40:35;;;;;;;;;;;27.40;58.10;;;;;;5058519;28;19916;-60
2021/06/21 03:43:01;;;;;;;;;;;27.30;58.00;;;;;;5051240;28;19925;-62
2021/06/21 03:45:26;;;;;;;;;;;27.40;58.10;;;;;;5057027;28;19920;-62
2021/06/21 03:47:51;;;;;;;;;;;27.40;58.00;;;;;;5028094;28;19928;-61
2021/06/21 03:50:17;;;;;;;;;;;27.40;58.00;;;;;;5044595;28;19949;-62
2021/06/21 03:52:42;;;;;;;;;;;27.30;57.90;;;;;;5051924;28;19936;-62
2021/06/21 03:55:09;;;;;;;;;;;27.40;58.10;;;;;;5055927;28;20335;-60
2021/06/21 03:57:35;;;;;;;;;;;27.40;58.10;;;;;;5038702;28;19931;-61
2021/06/21 04:00:01;;;;;;;;;;;27.40;58.10;;;;;;5048928;28;19920;-61
2021/06/21 04:02:26;;;;;;;;;;;27.30;58.10;;;;;;5045228;28;19934;-60
2021/06/21 04:04:51;;;;;;;;;;;27.30;58.10;;;;;;5064790;28;19959;-61
2021/06/21 04:07:17;;;;;;;;;;;27.30;58.10;;;;;;5061360;28;19916;-61
2021/06/21 04:09:42;;;;;;;;;;;27.30;58.10;;;;;;5056684;28;20385;-60
2021/06/21 04:12:08;;;;;;;;;;;27.30;58.20;;;;;;5047246;28;20240;-62
2021/06/21 04:14:34;;;;;;;;;;;27.30;58.20;;;;;;5045346;28;19917;-61
2021/06/21 04:16:59;;;;;;;;;;;27.30;58.30;;;;;;5050578;28;19942;-61
2021/06/21 04:19:24;;;;;;;;;;;27.30;58.20;;;;;;5059890;28;20465;-59
2021/06/21 04:21:50;;;;;;;;;;;27.30;58.20;;;;;;5055509;28;19925;-61
2021/06/21 04:24:15;;;;;;;;;;;27.30;58.20;;;;;;5040841;28;19917;-60
2021/06/21 04:26:41;;;;;;;;;;;27.20;58.30;;;;;;5064204;28;19974;-62
2021/06/21 04:29:06;;;;;;;;;;;27.20;58.40;;;;;;5055374;28;20857;-62
2021/06/21 04:31:32;;;;;;;;;;;27.10;58.60;;;;;;5063475;28;19920;-62
2021/06/21 04:33:57;;;;;;;;;;;27.00;58.70;;;;;;5067895;28;19920;-62
2021/06/21 04:36:23;;;;;;;;;;;26.90;58.90;;;;;;5057966;28;20675;-63
2021/06/21 04:38:48;;;;;;;;;;;26.80;58.90;;;;;;5057978;28;19916;-63
2021/06/21 04:41:14;;;;;;;;;;;26.70;59.30;;;;;;5056675;28;19927;-62
2021/06/21 04:43:39;;;;;;;;;;;26.80;59.40;;;;;;5064941;28;19993;-62
2021/06/21 04:46:05;;;;;;;;;;;26.70;59.50;;;;;;5056293;28;19956;-62
2021/06/21 04:48:31;;;;;;;;;;;26.70;59.80;;;;;;5055865;28;20456;-62
2021/06/21 04:50:57;;;;;;;;;;;26.70;59.90;;;;;;5030652;28;19923;-61
2021/06/21 04:53:22;;;;;;;;;;;26.70;60.10;;;;;;5053475;28;19963;-61
2021/06/21 04:55:48;;;;;;;;;;;26.70;60.30;;;;;;5036179;28;20094;-62
2021/06/21 04:58:13;;;;;;;;;;;26.70;60.10;;;;;;5047269;28;20258;-62
2021/06/21 05:00:39;;;;;;;;;;;26.70;60.10;;;;;;5054627;28;19935;-61
2021/06/21 05:03:04;;;;;;;;;;;26.70;59.90;;;;;;5061138;28;19924;-62
2021/06/21 05:05:30;;;;;;;;;;;26.60;59.90;;;;;;5064506;28;20604;-63
2021/06/21 05:07:55;;;;;;;;;;;26.70;59.70;;;;;;5065852;28;20476;-63
2021/06/21 05:10:21;;;;;;;;;;;26.80;59.60;;;;;;5056237;28;19925;-62
2021/06/21 05:12:47;;;;;;;;;;;26.70;59.50;;;;;;5055975;28;20042;-60
2021/06/21 05:15:12;;;;;;;;;;;26.60;59.90;;;;;;5052648;28;19939;-61
2021/06/21 05:17:38;;;;;;;;;;;26.60;60.10;;;;;;5058322;28;20309;-62
2021/06/21 05:20:04;;;;;;;;;;;26.60;60.30;;;;;;5059875;28;20347;-63
2021/06/21 05:22:30;;;;;;;;;;;26.60;60.20;;;;;;5053278;28;19949;-60
2021/06/21 05:24:57;;;;;;;;;;;26.60;60.70;;;;;;5055834;28;20022;-62
2021/06/21 05:27:23;;;;;;;;;;;26.60;60.70;;;;;;5054499;28;19913;-60
2021/06/21 05:29:48;;;;;;;;;;;26.60;60.70;;;;;;5067741;28;20462;-62
2021/06/21 05:32:13;;;;;;;;;;;26.50;60.70;;;;;;5070472;28;19959;-60
2021/06/21 05:34:40;;;;;;;;;;;26.40;61.30;;;;;;5055987;28;19920;-62
2021/06/21 05:37:05;;;;;;;;;;;26.30;61.70;;;;;;5060486;28;20142;-62
2021/06/21 05:39:31;;;;;;;;;;;26.30;62.10;;;;;;5067204;28;19924;-65
2021/06/21 05:41:56;;;;;;;;;;;26.40;62.30;;;;;;5065452;28;19917;-60
2021/06/21 05:44:22;;;;;;;;;;;26.40;62.30;;;;;;5076183;28;19928;-63
2021/06/21 05:46:47;;;;;;;;;;;26.40;61.80;;;;;;5068816;28;19952;-62
2021/06/21 05:49:13;;;;;;;;;;;26.40;61.90;;;;;;5055498;28;20102;-62
2021/06/21 05:51:38;;;;;;;;;;;26.40;61.80;;;;;;5070543;28;19916;-62
2021/06/21 05:54:04;;;;;;;;;;;26.40;61.60;;;;;;5070100;28;19917;-61
2021/06/21 05:56:29;;;;;;;;;;;26.50;61.30;;;;;;5073592;28;19935;-62
2021/06/21 05:58:55;;;;;;;;;;;26.60;61.20;;;;;;5069028;28;20296;-62
2021/06/21 06:01:20;;;;;;;;;;;26.50;61.00;;;;;;5066331;28;19920;-61
2021/06/21 06:03:46;;;;;;;;;;;26.60;60.60;;;;;;5055098;28;20570;-61
2021/06/21 06:06:11;;;;;;;;;;;26.50;60.20;;;;;;5055283;28;19928;-62
2021/06/21 06:08:36;;;;;;;;;;;26.60;60.20;;;;;;5073206;22;20373;-62
2021/06/21 06:11:02;;;;;;;;;;;26.60;60.20;;;;;;5073103;28;19923;-63
2021/06/21 06:13:27;;;;;;;;;;;26.70;60.40;;;;;;5069392;28;19965;-63
2021/06/21 06:15:53;;;;;;;;;;;26.70;60.40;;;;;;5068409;28;20337;-63
2021/06/21 06:18:18;;;;;;;;;;;26.70;60.50;;;;;;5071670;28;19920;-62
2021/06/21 06:20:44;;;;;;;;;;;26.80;60.40;;;;;;5068735;28;19916;-63
2021/06/21 06:23:09;;;;;;;;;;;26.80;60.90;;;;;;5056123;28;20260;-64
2021/06/21 06:25:37;;;;;;;;;;;26.80;60.30;;;;;;5066138;28;19923;-63
2021/06/21 06:28:03;;;;;;;;;;;26.80;60.30;;;;;;5072249;28;19916;-63
2021/06/21 06:30:28;;;;;;;;;;;26.80;60.30;;;;;;5068034;28;19924;-63
2021/06/21 06:32:53;;;;;;;;;;;26.80;60.30;;;;;;5069227;28;19955;-64
2021/06/21 06:35:19;;;;;;;;;;;26.80;60.40;;;;;;5071655;28;20336;-64
2021/06/21 06:37:45;;;;;;;;;;;26.90;60.30;;;;;;5073999;28;19917;-63
2021/06/21 06:40:11;;;;;;;;;;;26.90;60.10;;;;;;5070102;28;19912;-63
2021/06/21 06:42:36;;;;;;;;;;;26.90;60.20;;;;;;5075924;28;19923;-63
2021/06/21 06:45:02;;;;;;;;;;;26.90;60.20;;;;;;5069351;28;19912;-64
2021/06/21 06:47:29;;;;;;;;;;;26.80;60.10;;;;;;5057115;28;19970;-63
2021/06/21 06:49:54;;;;;;;;;;;26.80;60.10;;;;;;5058617;28;19939;-63
2021/06/21 06:52:22;;;;;;;;;;;26.90;60.10;;;;;;5076353;28;19959;-62
2021/06/21 06:57:32;;;;;;;;;;;26.90;60.20;;;;;;5077545;28;19926;-62
2021/06/21 06:59:57;;;;;;;;;;;26.90;60.40;;;;;;5067061;28;20377;-63
2021/06/21 07:02:23;;;;;;;;;;;26.90;60.50;;;;;;5077291;28;19922;-63
2021/06/21 07:04:48;;;;;;;;;;;26.90;60.40;;;;;;5058534;28;19973;-63
2021/06/21 07:07:14;;;;;;;;;;;26.90;60.30;;;;;;5067261;28;20014;-64
2021/06/21 07:09:40;;;;;;;;;;;26.90;60.30;;;;;;5059778;28;19912;-62
2021/06/21 07:12:06;;;;;;;;;;;26.90;60.40;;;;;;5064003;28;19912;-62
2021/06/21 07:14:31;;;;;;;;;;;27.00;60.40;;;;;;5075986;28;19942;-63
2021/06/21 07:16:57;;;;;;;;;;;27.00;60.40;;;;;;5063805;28;19925;-63
2021/06/21 07:19:22;;;;;;;;;;;26.90;60.40;;;;;;5064206;28;21492;-62
2021/06/21 07:21:48;;;;;;;;;;;27.00;60.30;;;;;;5066423;28;19936;-63
2021/06/21 07:24:14;;;;;;;;;;;26.90;60.30;;;;;;5056391;28;20287;-62
2021/06/21 07:26:39;;;;;;;;;;;27.00;60.20;;;;;;5060877;28;19916;-63
2021/06/21 07:29:05;;;;;;;;;;;27.00;60.20;;;;;;5063711;28;20620;-63
2021/06/21 07:31:30;;;;;;;;;;;27.00;60.20;;;;;;5067298;28;19916;-62
2021/06/21 07:33:56;;;;;;;;;;;27.00;60.20;;;;;;5058044;28;19912;-63
2021/06/21 07:36:21;;;;;;;;;;;27.00;60.10;;;;;;5055353;28;20011;-64
2021/06/21 07:38:47;;;;;;;;;;;27.00;60.20;;;;;;5059903;28;19944;-63
2021/06/21 07:41:13;;;;;;;;;;;26.90;60.10;;;;;;5069088;28;19919;-62
2021/06/21 07:43:38;;;;;;;;;;;27.00;60.10;;;;;;5064663;28;20402;-63
2021/06/21 07:46:04;;;;;;;;;;;26.90;59.90;;;;;;5060507;28;19916;-63
2021/06/21 07:48:30;;;;;;;;;;;26.90;59.90;;;;;;5068174;28;19917;-63
2021/06/21 07:50:55;;;;;;;;;;;26.90;60.00;;;;;;5068428;28;19916;-63
2021/06/21 07:53:21;;;;;;;;;;;26.90;59.90;;;;;;5068484;28;19950;-63
2021/06/21 07:55:46;;;;;;;;;;;27.00;60.00;;;;;;5063930;28;19940;-63
2021/06/21 07:58:11;;;;;;;;;;;27.00;59.80;;;;;;5062730;28;19928;-62
2021/06/21 08:00:40;;;;;;;;;;;27.00;59.60;;;;;;5073120;28;19940;-62
2021/06/21 08:03:09;;;;;;;;;;;26.90;59.70;;;;;;5056432;28;20399;-61
2021/06/21 08:05:35;;;;;;;;;;;26.90;59.60;;;;;;5051965;28;20042;-63
2021/06/21 08:08:00;;;;;;;;;;;27.00;59.70;;;;;;5054421;28;19924;-61
2021/06/21 08:10:26;;;;;;;;;;;27.00;59.60;;;;;;5068657;28;19943;-64
2021/06/21 08:12:51;;;;;;;;;;;27.00;59.60;;;;;;5075368;28;19924;-62
2021/06/21 08:15:17;;;;;;;;;;;27.00;59.50;;;;;;5071421;28;19916;-62
2021/06/21 08:17:42;;;;;;;;;;;27.00;59.40;;;;;;5065294;28;20056;-61
2021/06/21 08:20:08;;;;;;;;;;;27.00;59.40;;;;;;5071077;28;19922;-62
2021/06/21 08:22:34;;;;;;;;;;;27.00;59.30;;;;;;5049631;28;20005;-64
2021/06/21 08:24:59;;;;;;;;;;;27.00;59.40;;;;;;5073112;28;19956;-62
2021/06/21 08:27:25;;;;;;;;;;;27.00;59.40;;;;;;5056233;28;19913;-63
2021/06/21 08:29:50;;;;;;;;;;;27.00;59.40;;;;;;5073109;28;20292;-63
2021/06/21 08:32:17;;;;;;;;;;;27.00;59.50;;;;;;5065539;28;19916;-61
2021/06/21 08:34:42;;;;;;;;;;;27.00;59.50;;;;;;5075116;28;19916;-63
2021/06/21 08:37:08;;;;;;;;;;;27.00;59.40;;;;;;5076139;28;19927;-63
2021/06/21 08:39:33;;;;;;;;;;;27.00;59.40;;;;;;5062097;28;19965;-64
2021/06/21 08:41:59;;;;;;;;;;;27.00;59.50;;;;;;5063907;28;20421;-63
2021/06/21 08:44:25;;;;;;;;;;;27.00;59.40;;;;;;5064054;28;19916;-63
2021/06/21 08:46:51;;;;;;;;;;;27.10;59.30;;;;;;5069652;28;19916;-63
2021/06/21 08:49:19;;;;;;;;;;;27.00;59.20;;;;;;5070612;28;19916;-62
2021/06/21 08:51:45;;;;;;;;;;;27.10;59.20;;;;;;5070448;28;19912;-65
2021/06/21 08:54:10;;;;;;;;;;;27.00;59.30;;;;;;5069697;28;20120;-64
2021/06/21 08:56:35;;;;;;;;;;;27.00;59.40;;;;;;5064133;28;19916;-63
2021/06/21 08:59:07;;;;;;;;;;;27.00;59.30;;;;;;5066385;28;19923;-63
2021/06/21 09:01:33;;;;;;;;;;;27.10;59.30;;;;;;5069194;28;19916;-63
2021/06/21 09:04:01;;;;;;;;;;;27.10;59.40;;;;;;5071773;28;20392;-63
2021/06/21 09:06:27;;;;;;;;;;;27.00;59.20;;;;;;5068174;28;19940;-61
2021/06/21 09:08:56;;;;;;;;;;;27.10;59.40;;;;;;5064371;28;19954;-62
2021/06/21 09:11:41;;;;;;;;;;;27.10;59.20;;;;;;5077985;28;19943;-62
2021/06/21 09:14:13;;;;;;;;;;;27.10;59.30;;;;;;5075886;28;20344;-63
2021/06/21 09:16:42;;;;;;;;;;;27.10;59.90;;;;;;5077522;28;21547;-64
2021/06/21 09:19:08;;;;;;;;;;;27.10;59.20;;;;;;5075556;28;20320;-64
2021/06/21 09:21:37;;;;;;;;;;;27.10;59.30;;;;;;5080703;28;19912;-63
2021/06/21 09:24:10;;;;;;;;;;;27.10;59.20;;;;;;5060296;28;19920;-64
2021/06/21 09:26:36;;;;;;;;;;;27.10;59.20;;;;;;5071509;28;20015;-63
2021/06/21 09:29:01;;;;;;;;;;;27.10;59.20;;;;;;5058850;28;20379;-62
2021/06/21 09:31:27;;;;;;;;;;;27.10;59.20;;;;;;5066710;28;19924;-64
2021/06/21 09:33:53;;;;;;;;;;;27.10;59.10;;;;;;5079638;28;20512;-63
2021/06/21 09:36:33;;;;;;;;;;;27.10;59.10;;;;;;5060534;28;19916;-63
2021/06/21 09:39:18;;;;;;;;;;;27.10;59.20;;;;;;5065530;28;20024;-63
2021/06/21 09:42:26;;;;;;;;;;;27.10;59.10;;;;;;5068731;28;19916;-63
2021/06/21 09:44:53;;;;;;;;;;;27.10;59.20;;;;;;4996854;28;20661;-63
2021/06/21 09:47:18;;;;;;;;;;;27.10;59.20;;;;;;4997479;28;19920;-63
2021/06/21 09:50:02;;;;;;;;;;;27.10;59.20;;;;;;5031144;28;19916;-63
2021/06/21 09:52:31;;;;;;;;;;;27.10;59.20;;;;;;5069746;28;20331;-63
2021/06/21 09:54:57;;;;;;;;;;;27.10;59.20;;;;;;5059173;28;19920;-62
2021/06/21 09:57:23;;;;;;;;;;;27.10;59.20;;;;;;5069182;28;20787;-65
2021/06/21 09:59:49;;;;;;;;;;;27.10;59.00;;;;;;5063621;28;19921;-62
2021/06/21 10:02:17;;;;;;;;;;;27.10;59.00;;;;;;5059475;28;20026;-63
2021/06/21 10:04:43;;;;;;;;;;;27.10;59.00;;;;;;5056982;28;20388;-63
2021/06/21 10:07:45;;;;;;;;;;;27.10;59.00;;;;;;5057855;28;19966;-64
2021/06/21 10:10:11;;;;;;;;;;;27.10;59.00;;;;;;5030738;28;19917;-64
2021/06/21 10:12:37;;;;;;;;;;;27.10;58.90;;;;;;5061298;28;20007;-63
2021/06/21 10:15:03;;;;;;;;;;;27.10;58.90;;;;;;5069596;28;19944;-63
2021/06/21 10:17:28;;;;;;;;;;;27.10;58.90;;;;;;5058856;28;20185;-63
2021/06/21 10:19:54;;;;;;;;;;;27.10;58.80;;;;;;5059387;28;19916;-62
2021/06/21 10:22:22;;;;;;;;;;;27.10;58.70;;;;;;5065814;28;20048;-62
2021/06/21 10:24:49;;;;;;;;;;;27.10;58.80;;;;;;5069514;28;19913;-63
2021/06/21 10:27:14;;;;;;;;;;;27.10;58.80;;;;;;5064237;28;19920;-63
2021/06/21 10:29:39;;;;;;;;;;;27.10;58.70;;;;;;5068765;28;20379;-63
2021/06/21 10:32:06;;;;;;;;;;;27.10;58.70;;;;;;5077388;28;19916;-63
2021/06/21 10:34:31;;;;;;;;;;;27.10;58.60;;;;;;5061728;28;19969;-63
2021/06/21 10:36:57;;;;;;;;;;;27.10;58.50;;;;;;5065073;28;19920;-63
2021/06/21 10:39:23;;;;;;;;;;;27.20;58.60;;;;;;5066068;28;20006;-63
2021/06/21 10:42:03;;;;;;;;;;;27.20;58.60;;;;;;5073671;28;20387;-63
2021/06/21 10:44:33;;;;;;;;;;;27.10;58.60;;;;;;5069965;28;19916;-64
2021/06/21 10:47:11;;;;;;;;;;;27.10;58.60;;;;;;5073956;28;19916;-63
2021/06/21 10:49:37;;;;;;;;;;;27.10;58.30;;;;;;5062307;28;19912;-63
2021/06/21 10:52:09;;;;;;;;;;;27.10;58.20;;;;;;5077911;28;19913;-63
2021/06/21 10:54:35;;;;;;;;;;;27.20;58.10;;;;;;5076742;28;19926;-62
2021/06/21 10:57:03;;;;;;;;;;;27.20;58.00;;;;;;5071363;28;19987;-63
2021/06/21 10:59:28;;;;;;;;;;;27.20;58.10;;;;;;5069326;28;20427;-63
2021/06/21 11:01:55;;;;;;;;;;;27.20;58.00;;;;;;5062218;28;19916;-64
2021/06/21 11:04:33;;;;;;;;;;;27.10;57.80;;;;;;5061503;28;19916;-63
2021/06/21 11:07:22;;;;;;;;;;;27.20;57.80;;;;;;5072921;28;19913;-64
2021/06/21 11:09:49;;;;;;;;;;;27.20;58.00;;;;;;5051059;28;20377;-64
2021/06/21 11:12:20;;;;;;;;;;;27.20;58.00;;;;;;5077405;28;19916;-63
2021/06/21 11:15:11;;;;;;;;;;;27.20;57.90;;;;;;5056870;28;19935;-63
2021/06/21 11:17:45;;;;;;;;;;;27.10;57.80;;;;;;5070946;28;20003;-63
2021/06/21 11:20:26;;;;;;;;;;;27.10;57.80;;;;;;5068140;28;19913;-63
2021/06/21 11:22:51;;;;;;;;;;;27.20;58.00;;;;;;5063831;28;19912;-62
2021/06/21 11:25:20;;;;;;;;;;;27.20;57.70;;;;;;5072251;28;19973;-61
2021/06/21 11:27:45;;;;;;;;;;;27.20;58.00;;;;;;5073275;28;19916;-60
2021/06/21 11:30:20;;;;;;;;;;;27.10;57.80;;;;;;5060830;28;19962;-62
2021/06/21 11:32:52;;;;;;;;;;;27.20;57.80;;;;;;5056797;28;19912;-62
2021/06/21 11:35:20;;;;;;;;;;;27.20;57.90;;;;;;5064517;28;19943;-64
2021/06/21 11:37:50;;;;;;;;;;;27.20;57.70;;;;;;5067434;28;19920;-62
2021/06/21 11:40:18;;;;;;;;;;;27.20;57.60;;;;;;5066425;28;20227;-63
2021/06/21 11:43:01;;;;;;;;;;;27.20;57.60;;;;;;5059688;28;20280;-63
2021/06/21 11:45:45;;;;;;;;;;;27.20;57.50;;;;;;5063879;28;19948;-63
2021/06/21 11:48:11;;;;;;;;;;;27.20;57.60;;;;;;5070402;28;19920;-63
2021/06/21 11:50:37;;;;;;;;;;;27.20;57.60;;;;;;5075452;28;20273;-62
2021/06/21 11:53:02;;;;;;;;;;;27.20;57.50;;;;;;5077527;28;19920;-62
2021/06/21 11:55:28;;;;;;;;;;;27.20;57.50;;;;;;5066224;28;19913;-61
2021/06/21 11:57:56;;;;;;;;;;;27.20;57.50;;;;;;5063247;28;20296;-62
2021/06/21 12:00:29;;;;;;;;;;;27.20;57.50;;;;;;5075963;28;19916;-63
2021/06/21 12:03:01;;;;;;;;;;;27.20;57.40;;;;;;5077279;28;19916;-62
2021/06/21 12:05:26;;;;;;;;;;;27.30;57.40;;;;;;5061950;28;19920;-60
2021/06/21 12:07:52;;;;;;;;;;;27.20;57.30;;;;;;5065130;22;19986;-60
2021/06/21 12:10:18;;;;;;;;;;;27.30;57.40;;;;;;5057670;28;19916;-63
2021/06/21 12:12:44;;;;;;;;;;;27.30;57.40;;;;;;5074413;28;19956;-63
2021/06/21 12:15:10;;;;;;;;;;;27.20;57.00;;;;;;5047323;28;20188;-63
2021/06/21 12:17:36;;;;;;;;;;;27.20;57.10;;;;;;5046248;28;19921;-62
2021/06/21 12:20:04;;;;;;;;;;;27.20;57.20;;;;;;5046630;28;19946;-61
2021/06/21 12:22:30;;;;;;;;;;;27.30;57.40;;;;;;5051580;28;20593;-61
2021/06/21 12:24:55;;;;;;;;;;;27.20;57.20;;;;;;5040323;28;20169;-62
2021/06/21 12:27:21;;;;;;;;;;;27.20;57.00;;;;;;5051760;28;19995;-62
2021/06/21 12:29:47;;;;;;;;;;;27.30;57.20;;;;;;5044520;28;20463;-62
2021/06/21 12:32:12;;;;;;;;;;;27.30;57.10;;;;;;5036976;28;19982;-67
2021/06/21 12:34:38;;;;;;;;;;;27.30;57.10;;;;;;5056081;28;19916;-61
2021/06/21 12:37:16;;;;;;;;;;;27.30;57.10;;;;;;5053363;28;20007;-62
2021/06/21 12:39:43;;;;;;;;;;;27.30;57.00;;;;;;5057979;28;20076;-69
2021/06/21 12:42:12;;;;;;;;;;;27.30;57.00;;;;;;5052275;28;20383;-62
2021/06/21 12:44:38;;;;;;;;;;;27.30;57.00;;;;;;5056828;28;19916;-61
2021/06/21 12:47:13;;;;;;;;;;;27.30;57.00;;;;;;5058484;28;19986;-61
2021/06/21 12:49:39;;;;;;;;;;;27.30;56.90;;;;;;5039364;28;20007;-62
2021/06/21 12:52:04;;;;;;;;;;;27.30;56.80;;;;;;5056835;28;19923;-62
2021/06/21 12:54:33;;;;;;;;;;;27.30;56.80;;;;;;5039827;28;19983;-62
2021/06/21 12:56:59;;;;;;;;;;;27.30;56.80;;;;;;5055419;28;20633;-61
2021/06/21 12:59:24;;;;;;;;;;;27.30;56.90;;;;;;5053971;28;20073;-62
2021/06/21 13:01:50;;;;;;;;;;;27.30;56.80;;;;;;5054697;28;20153;-61
2021/06/21 13:04:16;;;;;;;;;;;27.30;56.80;;;;;;5048369;28;19916;-61
2021/06/21 13:06:42;;;;;;;;;;;27.30;56.70;;;;;;5052968;28;19999;-62
2021/06/21 13:09:08;;;;;;;;;;;27.30;56.80;;;;;;5052097;28;20386;-60
2021/06/21 13:11:49;;;;;;;;;;;27.30;56.90;;;;;;5057864;28;19916;-62
2021/06/21 13:14:15;;;;;;;;;;;27.30;56.90;;;;;;5054489;28;19917;-62
2021/06/21 13:16:40;;;;;;;;;;;27.30;56.80;;;;;;5055600;28;19920;-61
2021/06/21 13:19:13;;;;;;;;;;;27.30;56.80;;;;;;5045008;28;19913;-61
2021/06/21 13:21:40;;;;;;;;;;;27.30;56.80;;;;;;5040685;28;19917;-62
2021/06/21 13:24:05;;;;;;;;;;;27.30;56.80;;;;;;5057876;28;19963;-61
2021/06/21 13:26:49;;;;;;;;;;;27.30;56.80;;;;;;5050125;28;19951;-61
2021/06/21 13:29:24;;;;;;;;;;;27.30;56.70;;;;;;5049147;28;19995;-60
2021/06/21 13:31:50;;;;;;;;;;;27.30;56.70;;;;;;5065212;22;19935;-62
2021/06/21 13:34:34;;;;;;;;;;;27.30;56.60;;;;;;5027326;28;19916;-61
2021/06/21 13:37:00;;;;;;;;;;;27.30;56.50;;;;;;5054035;28;19920;-61
2021/06/21 13:39:25;;;;;;;;;;;27.30;56.40;;;;;;5057479;28;20408;-63
2021/06/21 13:42:00;;;;;;;;;;;27.30;56.40;;;;;;5053742;28;19951;-61
2021/06/21 13:44:25;;;;;;;;;;;27.30;56.50;;;;;;5052872;28;19938;-62
2021/06/21 13:46:51;;;;;;;;;;;27.30;56.50;;;;;;5050629;28;20046;-62
2021/06/21 13:49:17;;;;;;;;;;;27.30;56.30;;;;;;5047764;28;19923;-66
2021/06/21 13:52:06;;;;;;;;;;;27.30;56.50;;;;;;5038777;28;20339;-60
2021/06/21 13:54:31;;;;;;;;;;;27.30;56.50;;;;;;5038401;28;20374;-60
2021/06/21 13:57:09;;;;;;;;;;;27.40;56.70;;;;;;5038754;28;19932;-60
2021/06/21 13:59:42;;;;;;;;;;;27.40;56.60;;;;;;5052304;28;20019;-62
2021/06/21 14:02:07;;;;;;;;;;;27.40;56.50;;;;;;5049284;28;19963;-62
2021/06/21 14:04:32;;;;;;;;;;;27.40;56.60;;;;;;5038488;28;19913;-61
2021/06/21 14:06:58;;;;;;;;;;;27.30;57.30;;;;;;5047082;28;20673;-61
2021/06/21 14:09:23;;;;;;;;;;;27.40;56.70;;;;;;5049128;28;19978;-62
2021/06/21 14:11:49;;;;;;;;;;;27.40;56.70;;;;;;5057139;28;19930;-62
2021/06/21 14:14:14;;;;;;;;;;;27.40;56.60;;;;;;5050818;28;19921;-62
2021/06/21 14:16:40;;;;;;;;;;;27.40;56.60;;;;;;5038509;28;19912;-62
2021/06/21 14:19:05;;;;;;;;;;;27.40;56.60;;;;;;5037129;28;20618;-62
2021/06/21 14:21:31;;;;;;;;;;;27.40;56.70;;;;;;5056866;28;19920;-62